Time;durP1;ratioP1;P1;durP2;ratioP2;P2;SDS_P1;SDS_P2;PMS_P1;PMS_P2;Temp;Humidity;BMP_temperature;BMP_pressure;BME280_temperature;BME280_humidity;BME280_pressure;Samples;Min_cycle;Max_cycle;Signal;HPM_P1;HPM_P2
2022/12/21 00:01:39;;;;;;;;;8.50;8.25;;;;;13.36;69.27;100709.66;5061878;28;45493;-48
2022/12/21 00:04:06;;;;;;;;;14.00;12.00;;;;;13.36;69.13;100709.66;5061353;28;45350;-48
2022/12/21 00:06:34;;;;;;;;;9.75;9.75;;;;;13.37;68.75;100711.41;5077425;28;46092;-48
2022/12/21 00:09:01;;;;;;;;;8.75;8.75;;;;;13.35;68.15;100710.56;5061460;28;45232;-46
2022/12/21 00:11:29;;;;;;;;;13.25;11.75;;;;;13.31;68.77;100709.75;5061409;28;45271;-48
2022/12/21 00:14:00;;;;;;;;;11.75;11.75;;;;;13.33;68.75;100688.59;5060107;28;45619;-50
2022/12/21 00:16:28;;;;;;;;;12.75;10.75;;;;;13.29;68.86;100690.44;5061473;28;46294;-48
2022/12/21 00:18:55;;;;;;;;;12.00;10.75;;;;;13.32;68.66;100694.81;5061406;28;45338;-49
2022/12/21 00:21:23;;;;;;;;;15.75;13.50;;;;;13.33;69.02;100705.31;5061408;28;45398;-51
2022/12/21 00:23:50;;;;;;;;;12.50;11.00;;;;;13.31;68.79;100693.94;5061320;28;45415;-46
2022/12/21 00:26:21;;;;;;;;;11.75;11.00;;;;;13.32;68.57;100700.94;5044248;28;45335;-47
2022/12/21 00:28:49;;;;;;;;;11.50;11.50;;;;;13.33;68.95;100715.88;5076568;28;45532;-50
2022/12/21 00:31:20;;;;;;;;;10.00;10.00;;;;;13.35;69.20;100709.69;5061264;27;45295;-50
2022/12/21 00:33:47;;;;;;;;;11.50;11.50;;;;;13.34;68.91;100711.44;5060988;27;45444;-48
2022/12/21 00:36:15;;;;;;;;;13.50;10.50;;;;;13.30;69.13;100708.03;5059725;28;46406;-47
2022/12/21 00:38:41;;;;;;;;;14.75;12.50;;;;;13.34;68.98;100706.16;5060838;28;45508;-46
2022/12/21 00:41:10;;;;;;;;;10.25;10.00;;;;;13.33;69.07;100699.16;5060991;28;45241;-46
2022/12/21 00:43:37;;;;;;;;;11.00;9.50;;;;;13.27;69.03;100694.94;5060819;28;45272;-47
2022/12/21 00:46:03;;;;;;;;;10.25;8.25;;;;;13.37;68.74;100705.22;5061090;28;45338;-48
2022/12/21 00:48:30;;;;;;;;;13.25;11.25;;;;;13.34;69.36;100700.91;5060807;28;45273;-47
2022/12/21 00:51:06;;;;;;;;;12.50;11.75;;;;;13.35;69.30;100696.50;5061359;28;45363;-47
2022/12/21 00:53:32;;;;;;;;;12.25;11.50;;;;;13.32;69.36;100706.22;5048584;28;45291;-47
2022/12/21 00:55:59;;;;;;;;;13.00;11.00;;;;;13.33;69.03;100707.97;5060499;28;46305;-47
2022/12/21 00:58:26;;;;;;;;;10.25;9.50;;;;;13.32;69.06;100710.66;5060937;28;45269;-46
2022/12/21 01:00:55;;;;;;;;;13.75;10.75;;;;;13.31;69.26;100704.47;5060733;28;45348;-47
2022/12/21 01:03:21;;;;;;;;;10.25;9.00;;;;;13.28;69.00;100711.59;5060740;28;45490;-47
2022/12/21 01:05:49;;;;;;;;;13.75;10.75;;;;;13.33;69.60;100709.72;5060409;28;46684;-47
2022/12/21 01:08:16;;;;;;;;;10.75;10.75;;;;;13.31;69.33;100715.03;5060681;28;45354;-45
2022/12/21 01:10:41;;;;;;;;;10.00;10.00;;;;;13.30;69.14;100718.56;5060568;28;45497;-45
2022/12/21 01:13:07;;;;;;;;;9.25;8.25;;;;;13.32;69.09;100722.06;5069402;28;45494;-46
2022/12/21 01:15:32;;;;;;;;;9.00;7.50;;;;;13.34;69.18;100711.44;5060502;28;45303;-48
2022/12/21 01:17:57;;;;;;;;;10.50;7.75;;;;;13.33;69.43;100720.28;5060654;28;45372;-46
2022/12/21 01:20:23;;;;;;;;;13.50;12.00;;;;;13.32;69.61;100713.28;5060882;28;45318;-48
2022/12/21 01:22:48;;;;;;;;;9.75;9.25;;;;;13.33;69.05;100707.06;5060534;28;45306;-46
2022/12/21 01:25:14;;;;;;;;;10.25;9.00;;;;;13.33;69.28;100720.28;5060125;28;45549;-46
2022/12/21 01:27:39;;;;;;;;;13.25;10.75;;;;;13.31;69.12;100720.31;5052449;28;45185;-46
2022/12/21 01:30:05;;;;;;;;;12.25;8.50;;;;;13.30;69.42;100721.22;5060482;28;45406;-46
2022/12/21 01:32:30;;;;;;;;;12.25;12.25;;;;;13.29;68.92;100723.91;5060528;28;45217;-46
2022/12/21 01:34:56;;;;;;;;;12.00;10.25;;;;;13.35;69.40;100725.53;5058769;28;46112;-47
2022/12/21 01:37:22;;;;;;;;;7.50;7.50;;;;;13.33;69.71;100730.81;5057512;28;46065;-46
2022/12/21 01:39:47;;;;;;;;;11.00;9.25;;;;;13.31;69.09;100722.09;5059090;28;45235;-46
2022/12/21 01:42:13;;;;;;;;;12.00;10.00;;;;;13.31;69.36;100724.75;5073630;28;45965;-45
2022/12/21 01:45:00;;;;;;;;;10.75;9.00;;;;;13.30;69.36;100725.66;5059332;28;45803;-48
2022/12/21 01:47:32;;;;;;;;;11.25;9.75;;;;;13.28;69.21;100728.31;5059225;28;45444;-45
2022/12/21 01:50:04;;;;;;;;;10.50;10.25;;;;;13.29;69.73;100740.59;5059396;28;45243;-48
2022/12/21 01:52:31;;;;;;;;;10.25;9.00;;;;;13.29;69.82;100739.75;5059069;28;45443;-46
2022/12/21 01:55:03;;;;;;;;;12.25;9.75;;;;;13.26;69.63;100734.56;5058992;28;46344;-47
2022/12/21 01:57:32;;;;;;;;;9.50;9.25;;;;;13.24;69.71;100742.47;5051915;28;45473;-46
2022/12/21 02:00:00;;;;;;;;;9.50;9.00;;;;;13.27;69.19;100749.44;5059262;28;45193;-45
2022/12/21 02:02:36;;;;;;;;;9.50;9.00;;;;;13.27;69.39;100744.19;5058630;28;45406;-47
2022/12/21 02:05:33;;;;;;;;;8.00;8.00;;;;;13.27;69.71;100737.16;5058740;28;46158;-46
2022/12/21 02:08:01;;;;;;;;;10.00;9.00;;;;;13.26;69.54;100732.78;5055322;28;45255;-46
2022/12/21 02:10:27;;;;;;;;;9.50;9.50;;;;;13.26;69.39;100740.69;5059197;28;45359;-48
2022/12/21 02:13:00;;;;;;;;;11.75;10.00;;;;;13.26;70.03;100743.31;5058670;28;45216;-46
2022/12/21 02:15:52;;;;;;;;;11.00;9.00;;;;;13.26;69.56;100734.56;5058813;28;46183;-46
2022/12/21 02:18:23;;;;;;;;;8.75;8.50;;;;;13.24;69.49;100737.22;5058030;28;45364;-46
2022/12/21 02:21:21;;;;;;;;;8.75;8.50;;;;;13.25;69.61;100738.94;5058977;28;45425;-47
2022/12/21 02:24:08;;;;;;;;;9.00;9.00;;;;;13.24;69.40;100731.94;5058700;28;45296;-49
2022/12/21 02:27:01;;;;;;;;;8.75;8.50;;;;;13.25;69.43;100746.00;5051683;28;47192;-46
2022/12/21 02:29:48;;;;;;;;;9.25;8.00;;;;;13.27;69.48;100746.81;5058711;28;45420;-46
2022/12/21 02:32:19;;;;;;;;;11.25;9.00;;;;;13.26;68.88;100750.38;5058387;28;45522;-47
2022/12/21 02:35:07;;;;;;;;;9.50;9.50;;;;;13.25;69.62;100749.50;5053191;28;45378;-46
2022/12/21 02:38:19;;;;;;;;;12.25;10.00;;;;;13.26;69.98;100753.88;5051432;28;45322;-45
2022/12/21 02:41:15;;;;;;;;;9.00;8.25;;;;;13.25;69.77;100741.59;5046186;28;45312;-46
2022/12/21 02:44:13;;;;;;;;;7.75;7.00;;;;;13.22;70.02;100735.50;5058627;28;45444;-48
2022/12/21 02:47:08;;;;;;;;;7.00;7.00;;;;;13.22;69.50;100744.31;5058652;28;45385;-48
2022/12/21 02:49:45;;;;;;;;;8.25;8.25;;;;;13.23;69.82;100740.78;5058368;28;45468;-50
2022/12/21 02:52:31;;;;;;;;;12.00;10.50;;;;;13.23;69.42;100743.41;5057191;28;46392;-46
2022/12/21 02:54:59;;;;;;;;;6.00;6.00;;;;;13.24;69.76;100753.03;5061782;28;45465;-46
2022/12/21 02:57:39;;;;;;;;;5.50;5.25;;;;;13.23;69.25;100751.34;5076820;27;45458;-50
2022/12/21 03:00:10;;;;;;;;;4.00;4.00;;;;;13.22;69.32;100764.53;5058708;28;45348;-48
2022/12/21 03:03:47;;;;;;;;;4.50;4.50;;;;;13.20;69.17;100769.00;5061195;28;45517;-47
2022/12/21 03:06:05;;;;;;;;;5.00;5.00;;;;;13.19;69.46;100768.13;5061790;28;45468;-47
2022/12/21 03:09:15;;;;;;;;;4.00;4.00;;;;;13.08;69.15;100765.75;5052955;28;45247;-46
2022/12/21 03:11:54;;;;;;;;;3.50;3.50;;;;;13.09;68.80;100770.13;5058049;28;46208;-47
2022/12/21 03:14:33;;;;;;;;;5.00;5.00;;;;;13.01;69.10;100780.84;5061186;28;45411;-46
2022/12/21 03:17:16;;;;;;;;;5.00;3.00;;;;;12.99;68.56;100774.75;5061695;28;45664;-45
2022/12/21 03:20:13;;;;;;;;;4.00;4.00;;;;;12.92;68.58;100778.44;5055622;28;45477;-46
2022/12/21 03:23:00;;;;;;;;;3.50;3.00;;;;;12.87;68.76;100790.00;5054554;28;45335;-47
2022/12/21 03:25:51;;;;;;;;;4.00;2.00;;;;;12.81;68.54;100791.00;5058718;28;45410;-50
2022/12/21 03:28:22;;;;;;;;;3.00;3.00;;;;;12.74;68.58;100787.66;5060017;28;45569;-46
2022/12/21 03:30:53;;;;;;;;;3.00;2.00;;;;;12.71;68.60;100784.22;5061331;28;45415;-47
2022/12/21 03:33:23;;;;;;;;;2.00;1.75;;;;;12.65;68.13;100774.66;5060849;28;48577;-48
2022/12/21 03:35:59;;;;;;;;;2.00;2.00;;;;;12.63;68.50;100774.69;5049374;28;45502;-51
2022/12/21 03:38:40;;;;;;;;;3.00;2.00;;;;;12.59;68.15;100780.06;5060949;28;45401;-46
2022/12/21 03:41:11;;;;;;;;;2.75;2.75;;;;;12.54;68.18;100782.81;5059833;28;45391;-47
2022/12/21 03:43:37;;;;;;;;;3.00;3.00;;;;;12.51;68.16;100793.41;5059360;28;46209;-50
2022/12/21 03:46:07;;;;;;;;;2.75;2.75;;;;;12.47;68.24;100792.59;5061586;28;45228;-49
2022/12/21 03:48:42;;;;;;;;;2.00;2.00;;;;;12.44;68.32;100797.97;5076486;28;45486;-50
2022/12/21 03:51:18;;;;;;;;;2.50;1.00;;;;;12.41;68.07;100789.25;5061764;28;45319;-48
2022/12/21 03:54:00;;;;;;;;;3.50;3.50;;;;;12.39;67.92;100798.94;5057163;28;46282;-49
2022/12/21 03:56:30;;;;;;;;;2.25;2.25;;;;;12.33;68.19;100805.22;5058243;28;45276;-46
2022/12/21 03:58:57;;;;;;;;;1.75;1.75;;;;;12.32;67.90;100806.13;5077482;28;45383;-46
2022/12/21 04:01:29;;;;;;;;;2.00;2.00;;;;;12.30;68.17;100800.88;5061392;28;45547;-47
2022/12/21 04:04:02;;;;;;;;;2.00;2.00;;;;;12.29;68.13;100799.13;5061179;28;45302;-47
2022/12/21 04:06:31;;;;;;;;;1.50;1.50;;;;;12.27;67.92;100800.06;5048604;28;45523;-49
2022/12/21 04:08:57;;;;;;;;;2.75;2.75;;;;;12.25;68.12;100788.69;5061725;28;45410;-47
2022/12/21 04:14:06;;;;;;;;;3.00;3.00;;;;;12.22;67.77;100794.03;5061644;28;45211;-48
2022/12/21 04:16:31;;;;;;;;;4.25;4.25;;;;;12.22;67.85;100799.31;5057155;28;45190;-47
2022/12/21 04:21:41;;;;;;;;;4.00;4.00;;;;;12.21;67.83;100808.09;5061663;28;45386;-48
2022/12/21 04:29:56;;;;;;;;;4.50;3.50;;;;;12.14;67.73;100817.91;5006861;28;45419;-46
2022/12/21 04:32:22;;;;;;;;;4.00;4.00;;;;;12.11;67.88;100815.31;4999155;28;45387;-48
2022/12/21 04:34:47;;;;;;;;;3.00;3.00;;;;;12.09;67.77;100817.97;5021824;28;46018;-47
2022/12/21 04:37:31;;;;;;;;;5.00;4.50;;;;;12.10;67.63;100824.97;5060040;28;45331;-46
2022/12/21 04:39:57;;;;;;;;;4.25;4.25;;;;;12.07;67.50;100811.00;5061162;28;45331;-46
2022/12/21 04:42:22;;;;;;;;;4.75;4.75;;;;;12.06;67.72;100817.16;5060892;28;45315;-50
2022/12/21 04:44:47;;;;;;;;;6.50;6.25;;;;;12.01;67.74;100818.13;5060885;28;45205;-46
2022/12/21 04:47:13;;;;;;;;;7.50;4.50;;;;;12.02;67.83;100816.34;5061359;28;45275;-48
2022/12/21 04:49:38;;;;;;;;;8.00;6.00;;;;;12.02;67.72;100818.97;5076864;28;45821;-51
2022/12/21 04:52:04;;;;;;;;;6.50;6.25;;;;;11.98;67.93;100817.31;5060891;28;45592;-45
2022/12/21 04:54:29;;;;;;;;;6.50;5.75;;;;;11.96;67.69;100817.34;5060731;28;45237;-48
2022/12/21 04:56:54;;;;;;;;;6.50;5.50;;;;;11.96;67.69;100817.34;5060714;28;45324;-47
2022/12/21 04:59:20;;;;;;;;;8.00;7.00;;;;;11.96;68.03;100838.41;5060797;28;45549;-46
2022/12/21 05:01:45;;;;;;;;;6.75;6.75;;;;;11.94;67.70;100834.03;5060833;28;45248;-48
2022/12/21 05:04:10;;;;;;;;;6.25;5.25;;;;;11.94;67.84;100827.00;5060487;28;46264;-50
2022/12/21 05:06:36;;;;;;;;;6.25;5.00;;;;;11.91;67.80;100829.69;5060668;28;45511;-48
2022/12/21 05:09:01;;;;;;;;;10.25;7.00;;;;;11.92;67.71;100834.03;5060924;28;45350;-45
2022/12/21 05:11:27;;;;;;;;;10.75;9.00;;;;;11.91;67.85;100831.44;5060279;28;45308;-48
2022/12/21 05:13:53;;;;;;;;;9.25;6.50;;;;;11.90;68.01;100842.88;5060469;28;46270;-46
2022/12/21 05:16:23;;;;;;;;;11.50;7.75;;;;;11.91;67.61;100840.25;5059723;28;45379;-49
2022/12/21 05:18:49;;;;;;;;;8.50;7.00;;;;;11.90;67.79;100843.75;5060523;28;45424;-50
2022/12/21 05:21:15;;;;;;;;;7.00;6.00;;;;;11.89;67.63;100842.03;5060333;28;45395;-48
2022/12/21 05:23:40;;;;;;;;;7.00;6.50;;;;;11.91;67.83;100847.25;5060284;28;46290;-48
2022/12/21 05:26:07;;;;;;;;;6.25;5.25;;;;;11.90;67.61;100841.13;5068116;28;45394;-48
2022/12/21 05:28:33;;;;;;;;;9.00;8.00;;;;;11.81;67.68;100820.22;5060299;28;45431;-49
2022/12/21 05:30:58;;;;;;;;;6.75;4.50;;;;;11.88;67.45;100835.00;5060478;28;45629;-47
2022/12/21 05:33:23;;;;;;;;;5.25;5.00;;;;;11.86;67.75;100829.78;5060249;28;45937;-48
2022/12/21 05:35:49;;;;;;;;;8.00;7.00;;;;;11.84;67.84;100833.34;5057707;28;45249;-45
2022/12/21 05:38:15;;;;;;;;;5.00;5.00;;;;;11.85;67.93;100835.94;5060169;28;45302;-48
2022/12/21 05:40:46;;;;;;;;;8.75;7.00;;;;;11.84;67.74;100841.22;5060063;28;45228;-46
2022/12/21 05:43:11;;;;;;;;;8.50;5.75;;;;;11.83;67.27;100840.34;5059877;28;46202;-51
2022/12/21 05:45:36;;;;;;;;;6.75;6.75;;;;;11.81;67.79;100836.00;5060184;28;45272;-48
2022/12/21 05:48:02;;;;;;;;;9.25;5.00;;;;;11.78;67.65;100843.97;5060153;28;45612;-49
2022/12/21 05:50:27;;;;;;;;;5.75;5.75;;;;;11.75;67.63;100850.16;5075432;28;45530;-45
2022/12/21 05:52:52;;;;;;;;;6.25;5.25;;;;;11.73;67.71;100854.56;5059895;28;45345;-48
2022/12/21 05:55:18;;;;;;;;;6.75;4.50;;;;;11.70;67.74;100857.28;5060127;28;45394;-49
2022/12/21 05:57:43;;;;;;;;;7.00;5.25;;;;;11.67;67.54;100852.03;5059535;28;45706;-50
2022/12/21 06:00:09;;;;;;;;;8.50;7.00;;;;;11.61;67.50;100847.78;5060081;28;45566;-48
2022/12/21 06:02:34;;;;;;;;;9.75;7.75;;;;;11.61;67.70;100847.78;5058353;28;46170;-47
2022/12/21 06:04:59;;;;;;;;;8.25;6.00;;;;;11.59;67.62;100849.53;5060008;28;45244;-50
2022/12/21 06:07:25;;;;;;;;;7.00;6.50;;;;;11.57;67.57;100856.59;5059968;28;45235;-49
2022/12/21 06:09:50;;;;;;;;;6.75;6.75;;;;;11.56;67.95;100852.25;5059937;28;45660;-49
2022/12/21 06:12:15;;;;;;;;;8.00;8.00;;;;;11.54;67.46;100857.50;5059377;28;46032;-51
2022/12/21 06:14:41;;;;;;;;;8.25;8.25;;;;;11.52;67.42;100850.53;5059816;28;45149;-45
2022/12/21 06:17:06;;;;;;;;;7.00;7.00;;;;;11.48;67.57;100854.13;5059867;28;45344;-51
2022/12/21 06:19:31;;;;;;;;;14.00;10.00;;;;;11.47;67.71;100858.53;5059750;28;45232;-49
2022/12/21 06:21:57;;;;;;;;;11.25;11.25;;;;;11.43;67.46;100848.06;5063220;28;47065;-46
2022/12/21 06:24:22;;;;;;;;;15.25;11.00;;;;;11.38;67.70;100849.00;5056040;28;45231;-48
2022/12/21 06:26:47;;;;;;;;;14.25;14.25;;;;;11.38;67.49;100859.53;5046567;28;45229;-47
2022/12/21 06:29:13;;;;;;;;;15.25;12.50;;;;;11.36;67.45;100863.94;5063181;28;45227;-50
2022/12/21 06:31:38;;;;;;;;;13.00;13.00;;;;;11.36;67.48;100870.97;5062976;28;46082;-50
2022/12/21 06:34:04;;;;;;;;;18.00;16.25;;;;;11.26;67.57;100856.19;5062340;28;45377;-50
2022/12/21 06:36:31;;;;;;;;;16.00;15.25;;;;;11.34;67.47;100875.38;5062524;28;45358;-48
2022/12/21 06:38:56;;;;;;;;;21.00;20.50;;;;;11.31;67.22;100878.94;5063138;28;45340;-47
2022/12/21 06:41:21;;;;;;;;;18.50;15.75;;;;;11.31;67.50;100889.47;5062356;28;45447;-49
2022/12/21 06:43:47;;;;;;;;;21.25;18.25;;;;;11.31;67.55;100889.47;5059407;28;45383;-49
2022/12/21 06:46:15;;;;;;;;;16.75;15.50;;;;;11.27;67.40;100882.50;5062237;28;45324;-47
2022/12/21 06:48:41;;;;;;;;;21.50;20.00;;;;;11.26;67.45;100883.41;5061955;28;45292;-46
2022/12/21 06:51:11;;;;;;;;;24.00;19.50;;;;;11.25;67.49;100878.16;5060427;28;48442;-48
2022/12/21 06:53:38;;;;;;;;;23.25;20.00;;;;;11.20;67.25;100886.97;5061667;28;45813;-49
2022/12/21 06:56:09;;;;;;;;;21.25;17.75;;;;;11.18;67.37;100880.00;5061591;28;45485;-50
2022/12/21 06:58:36;;;;;;;;;24.00;22.75;;;;;11.15;67.63;100883.53;5061620;28;45337;-49
2022/12/21 07:01:12;;;;;;;;;24.25;21.25;;;;;11.13;67.40;100890.59;5061463;28;46231;-46
2022/12/21 07:03:38;;;;;;;;;23.50;21.00;;;;;11.06;67.75;100897.69;5061541;28;45562;-46
2022/12/21 07:06:04;;;;;;;;;23.00;19.50;;;;;11.06;67.75;100897.69;5061804;28;45375;-46
2022/12/21 07:08:30;;;;;;;;;24.50;22.50;;;;;11.06;67.67;100892.44;5061543;28;45474;-45
2022/12/21 07:11:03;;;;;;;;;25.75;22.25;;;;;11.04;67.65;100894.22;5061246;28;45478;-45
2022/12/21 07:13:29;;;;;;;;;20.75;16.00;;;;;11.00;67.79;100905.66;5061554;28;46424;-47
2022/12/21 07:15:56;;;;;;;;;16.25;14.50;;;;;10.99;67.53;100903.94;5058864;28;45388;-50
2022/12/21 07:18:22;;;;;;;;;14.00;11.00;;;;;10.99;67.63;100914.47;5060826;28;45422;-48
2022/12/21 07:20:48;;;;;;;;;9.50;9.50;;;;;10.99;67.77;100905.69;5062261;28;45173;-46
2022/12/21 07:23:13;;;;;;;;;8.75;8.25;;;;;10.97;67.57;100910.09;5061066;28;45343;-46
2022/12/21 07:25:39;;;;;;;;;11.25;10.25;;;;;10.97;67.62;100902.19;5050304;28;45420;-49
2022/12/21 07:28:04;;;;;;;;;8.25;7.00;;;;;10.94;67.59;100903.09;5055220;28;45480;-46
2022/12/21 07:30:30;;;;;;;;;8.50;8.50;;;;;10.95;67.54;100909.25;5060662;28;46152;-46
2022/12/21 07:32:55;;;;;;;;;7.50;7.50;;;;;10.96;67.80;100909.22;5061541;28;45331;-46
2022/12/21 07:35:22;;;;;;;;;7.50;7.50;;;;;10.94;67.53;100897.00;5059945;28;45388;-47
2022/12/21 07:37:48;;;;;;;;;9.50;8.25;;;;;10.96;67.48;100905.75;5061291;28;45363;-49
2022/12/21 07:40:15;;;;;;;;;11.25;10.00;;;;;10.95;67.43;100915.38;5060060;28;46251;-46
2022/12/21 07:42:41;;;;;;;;;7.75;7.75;;;;;10.97;67.52;100913.59;5052757;28;45236;-49
2022/12/21 07:45:09;;;;;;;;;10.75;8.50;;;;;10.96;67.55;100921.50;5061219;28;45415;-47
2022/12/21 07:47:34;;;;;;;;;13.75;11.00;;;;;10.97;67.46;100924.13;5060982;28;45326;-49
2022/12/21 07:49:59;;;;;;;;;13.00;11.25;;;;;10.98;67.42;100932.88;5060937;28;46493;-50
2022/12/21 07:52:25;;;;;;;;;14.00;10.50;;;;;10.99;67.44;100939.88;5076195;28;46010;-52
2022/12/21 07:54:50;;;;;;;;;16.50;12.25;;;;;10.95;67.37;100939.03;5061146;28;45513;-53
2022/12/21 07:57:16;;;;;;;;;11.50;10.00;;;;;10.93;67.23;100929.44;5060455;28;45492;-52
2022/12/21 07:59:41;;;;;;;;;13.00;10.00;;;;;10.94;67.37;100939.06;5060820;28;46432;-52
2022/12/21 08:02:10;;;;;;;;;9.75;8.75;;;;;10.93;67.48;100932.06;5060967;28;45445;-52
2022/12/21 08:04:35;;;;;;;;;13.75;10.50;;;;;10.93;67.43;100932.06;5059906;28;45363;-52
2022/12/21 08:07:00;;;;;;;;;11.00;11.00;;;;;10.91;67.26;100933.84;5060970;28;45387;-49
2022/12/21 08:09:26;;;;;;;;;8.25;8.00;;;;;10.91;67.41;100939.97;5060313;28;46006;-53
2022/12/21 08:11:51;;;;;;;;;10.50;10.00;;;;;10.92;67.40;100940.81;5060708;28;45237;-52
2022/12/21 08:14:16;;;;;;;;;10.25;9.25;;;;;10.92;67.38;100946.09;5060641;28;45330;-55
2022/12/21 08:16:42;;;;;;;;;9.75;9.25;;;;;10.83;67.45;100932.19;5060903;28;45541;-51
2022/12/21 08:19:07;;;;;;;;;11.25;9.00;;;;;10.93;67.27;100955.72;5060489;28;46103;-52
2022/12/21 08:21:33;;;;;;;;;8.50;8.50;;;;;10.88;67.06;100950.53;5060494;28;45342;-53
2022/12/21 08:23:58;;;;;;;;;10.00;7.25;;;;;10.86;67.01;100953.16;5060341;28;45242;-53
2022/12/21 08:26:23;;;;;;;;;10.00;8.50;;;;;10.86;67.15;100957.56;5057535;28;45417;-52
2022/12/21 08:28:49;;;;;;;;;10.00;9.50;;;;;10.86;67.29;100949.69;5060514;28;45452;-53
2022/12/21 08:31:17;;;;;;;;;9.25;9.25;;;;;10.84;67.14;100947.06;5060436;28;45438;-53
2022/12/21 08:33:43;;;;;;;;;12.25;10.50;;;;;10.84;67.08;100954.97;5060615;28;45340;-52
2022/12/21 08:36:17;;;;;;;;;11.50;10.75;;;;;10.81;67.11;100954.13;5059115;28;45500;-52
2022/12/21 08:38:44;;;;;;;;;10.25;8.00;;;;;10.87;67.10;100961.94;5060108;28;45461;-53
2022/12/21 08:41:10;;;;;;;;;6.00;4.75;;;;;10.87;67.05;100949.66;5059828;28;45450;-53
2022/12/21 08:43:36;;;;;;;;;9.50;9.00;;;;;10.88;67.22;100940.03;5058717;28;45389;-53
2022/12/21 08:46:06;;;;;;;;;12.00;11.00;;;;;10.91;67.21;100942.59;5058987;28;45773;-51
2022/12/21 08:48:32;;;;;;;;;12.25;11.25;;;;;10.95;67.38;100940.81;5059804;28;45328;-53
2022/12/21 08:50:58;;;;;;;;;14.75;13.00;;;;;10.99;67.38;100945.13;5060128;28;45519;-51
2022/12/21 08:53:25;;;;;;;;;13.75;9.25;;;;;11.00;67.18;100937.22;5059561;28;45495;-50
2022/12/21 08:55:50;;;;;;;;;12.25;12.25;;;;;11.08;67.17;100941.50;5059747;28;45316;-51
2022/12/21 08:58:16;;;;;;;;;11.75;11.25;;;;;11.13;67.34;100942.31;5059625;28;45262;-50
2022/12/21 09:00:42;;;;;;;;;15.50;12.50;;;;;11.23;67.47;100949.19;5059940;28;45256;-49
2022/12/21 09:03:09;;;;;;;;;12.50;9.75;;;;;11.31;67.29;100947.34;5060141;28;45317;-48
2022/12/21 09:05:34;;;;;;;;;18.25;12.50;;;;;11.37;67.28;100939.34;5059386;28;45435;-50
2022/12/21 09:08:00;;;;;;;;;11.00;9.25;;;;;11.42;67.29;100933.16;5059750;28;46053;-50
2022/12/21 09:10:26;;;;;;;;;13.00;11.75;;;;;11.44;67.32;100936.66;5059341;28;45943;-50
2022/12/21 09:12:52;;;;;;;;;8.50;8.50;;;;;11.50;67.29;100933.91;5059908;28;45347;-48
2022/12/21 09:15:17;;;;;;;;;11.00;8.50;;;;;11.51;67.31;100933.03;5059514;28;45462;-51
2022/12/21 09:17:43;;;;;;;;;11.00;8.00;;;;;11.53;67.20;100940.00;5059678;28;45466;-53
2022/12/21 09:20:09;;;;;;;;;11.50;10.25;;;;;11.57;67.17;100951.34;5059757;28;45413;-51
2022/12/21 09:22:34;;;;;;;;;14.50;11.50;;;;;11.55;67.10;100946.09;5059277;28;45434;-55
2022/12/21 09:24:59;;;;;;;;;14.50;14.50;;;;;11.63;67.30;100945.97;5059673;28;45502;-51
2022/12/21 09:27:26;;;;;;;;;16.75;16.25;;;;;11.68;67.06;100951.19;5058430;28;46230;-51
2022/12/21 09:29:51;;;;;;;;;17.25;14.75;;;;;11.70;67.21;100942.38;5059634;28;45273;-49
2022/12/21 09:32:16;;;;;;;;;12.25;10.75;;;;;11.76;67.27;100938.78;5059121;28;45257;-54
2022/12/21 09:34:42;;;;;;;;;15.25;15.25;;;;;11.80;66.97;100944.88;5058479;28;45430;-52
2022/12/21 09:37:07;;;;;;;;;15.25;13.75;;;;;11.78;66.90;100933.50;5059206;28;45913;-57
2022/12/21 09:39:32;;;;;;;;;12.00;11.00;;;;;11.84;67.14;100936.03;5058729;28;45378;-56
2022/12/21 09:42:01;;;;;;;;;8.50;8.00;;;;;11.80;67.08;100939.63;5058216;28;45622;-55
2022/12/21 09:44:48;;;;;;;;;11.00;9.50;;;;;11.85;67.19;100945.66;5059338;28;45509;-55
2022/12/21 09:47:50;;;;;;;;;11.50;9.00;;;;;11.81;67.08;100949.22;5048057;28;46197;-55
2022/12/21 09:50:26;;;;;;;;;14.50;12.00;;;;;11.86;66.96;100965.81;5058302;28;45296;-54
2022/12/21 09:53:11;;;;;;;;;17.75;12.25;;;;;11.86;66.65;100964.06;5059751;27;45324;-57
2022/12/21 09:55:43;;;;;;;;;13.00;10.75;;;;;11.84;66.89;100965.00;5059519;28;45419;-57
2022/12/21 09:58:13;;;;;;;;;8.50;8.00;;;;;11.84;67.05;100972.88;5059417;28;45334;-57
2022/12/21 10:00:41;;;;;;;;;10.75;9.00;;;;;11.87;66.88;100965.81;5059890;28;45411;-57
2022/12/21 10:03:36;;;;;;;;;9.50;9.50;;;;;11.84;67.05;100978.16;5059248;27;45250;-57
2022/12/21 10:06:22;;;;;;;;;9.50;8.00;;;;;11.85;66.59;100964.09;5059762;28;45400;-57
2022/12/21 10:09:08;;;;;;;;;9.75;8.50;;;;;11.83;66.99;100977.28;5059731;28;46956;-57
2022/12/21 10:11:51;;;;;;;;;5.25;5.25;;;;;11.85;66.61;100975.50;5048593;28;45252;-57
2022/12/21 10:14:29;;;;;;;;;7.00;7.00;;;;;11.79;66.97;100983.47;5059723;28;45165;-52
2022/12/21 10:17:00;;;;;;;;;9.25;8.50;;;;;11.81;66.79;100983.44;5059737;28;45280;-57
2022/12/21 10:19:38;;;;;;;;;7.00;6.25;;;;;11.75;66.86;100973.00;5046852;28;45354;-57
2022/12/21 10:22:13;;;;;;;;;7.00;5.00;;;;;11.69;66.96;100963.47;5059515;28;45402;-60
2022/12/21 10:24:53;;;;;;;;;9.50;7.00;;;;;11.75;66.74;100960.75;5053801;28;45399;-57
2022/12/21 10:27:25;;;;;;;;;8.00;7.75;;;;;11.66;67.16;100967.00;5050314;28;45273;-57
2022/12/21 10:29:55;;;;;;;;;12.00;10.00;;;;;11.67;66.97;100965.25;5059523;28;46248;-57
2022/12/21 10:32:21;;;;;;;;;8.00;8.00;;;;;11.69;66.95;100952.94;5059076;28;46108;-51
2022/12/21 10:34:53;;;;;;;;;9.25;7.50;;;;;11.69;66.80;100938.00;5061628;27;45273;-55
2022/12/21 10:37:20;;;;;;;;;13.00;9.50;;;;;11.61;66.92;100931.09;5059274;28;45407;-55
2022/12/21 10:39:52;;;;;;;;;7.75;7.00;;;;;11.59;66.49;100923.25;5074936;28;46295;-55
2022/12/21 10:42:21;;;;;;;;;9.00;7.25;;;;;11.58;66.84;100925.91;5059202;28;45186;-56
2022/12/21 10:44:50;;;;;;;;;11.00;9.25;;;;;11.64;66.85;100929.31;5059416;28;45330;-55
2022/12/21 10:47:19;;;;;;;;;7.00;7.00;;;;;11.67;66.88;100920.47;5058157;28;45384;-56
2022/12/21 10:50:18;;;;;;;;;13.75;9.00;;;;;11.66;66.50;100917.00;5059027;28;45320;-56
2022/12/21 10:52:49;;;;;;;;;6.50;4.50;;;;;11.63;66.81;100918.81;5055276;28;45285;-55
2022/12/21 10:55:17;;;;;;;;;8.75;7.00;;;;;11.57;66.97;100909.22;5059385;28;45328;-57
2022/12/21 10:57:47;;;;;;;;;9.75;8.50;;;;;11.51;67.04;100902.31;5058945;28;45243;-61
2022/12/21 11:00:31;;;;;;;;;14.50;12.50;;;;;11.53;66.86;100897.00;5059226;28;46407;-58
2022/12/21 11:03:09;;;;;;;;;10.75;9.25;;;;;11.54;66.92;100889.09;5058912;28;45451;-54
2022/12/21 11:05:37;;;;;;;;;11.50;10.00;;;;;11.57;66.86;100896.06;5059168;28;45337;-53
2022/12/21 11:08:25;;;;;;;;;8.00;8.00;;;;;11.53;67.18;100897.91;5056348;28;45146;-52
2022/12/21 11:10:55;;;;;;;;;11.25;9.25;;;;;11.57;66.78;100890.81;5055846;28;47033;-52
2022/12/21 11:13:23;;;;;;;;;12.25;10.25;;;;;11.61;67.00;100889.00;5057717;28;45345;-51
2022/12/21 11:16:04;;;;;;;;;12.75;11.00;;;;;11.66;66.88;100879.25;5061616;28;45289;-50
2022/12/21 11:18:42;;;;;;;;;12.50;10.75;;;;;11.59;66.97;100872.38;5059951;28;45606;-50
2022/12/21 11:21:20;;;;;;;;;12.00;10.00;;;;;11.66;67.04;100868.72;5061518;28;45406;-54
2022/12/21 11:23:54;;;;;;;;;12.50;12.50;;;;;11.66;67.28;100874.00;5077404;28;45430;-53
2022/12/21 11:26:24;;;;;;;;;14.25;10.25;;;;;11.67;66.58;100863.47;5053079;28;45383;-52
2022/12/21 11:28:50;;;;;;;;;14.75;9.00;;;;;11.61;66.66;100862.66;5062350;28;46446;-50
2022/12/21 11:31:15;;;;;;;;;13.50;12.00;;;;;11.65;67.02;100861.75;5062081;28;45569;-50
2022/12/21 11:33:44;;;;;;;;;14.00;11.00;;;;;11.61;66.92;100852.13;5060927;28;45358;-50
2022/12/21 11:36:15;;;;;;;;;13.50;8.50;;;;;11.64;66.94;100855.59;5062254;28;45322;-52
2022/12/21 11:38:42;;;;;;;;;9.50;8.00;;;;;11.66;67.09;100853.81;5061795;28;45248;-49
2022/12/21 11:41:33;;;;;;;;;12.75;9.75;;;;;11.70;67.06;100854.63;5061605;28;46021;-51
2022/12/21 11:43:59;;;;;;;;;11.00;10.00;;;;;11.65;67.14;100833.66;5059895;28;45271;-49
2022/12/21 11:46:50;;;;;;;;;13.75;8.00;;;;;11.76;67.00;100835.22;5062211;28;45302;-52